Ashlands, United Kingdom
Current Conditions -  °F | °C
As of 3:20 AM on Sunday 23 Nov 2014 (Local Time) from EGBB Reporting Station
Light Rain Light Rain  
Wind Chill: 46°   Ceiling: 4300
Heat Index: 48°   Visibility: 6mi
Dew Point: 46°   Wind: 6mph
Humidity: 93%   Direction: 300°WNW
Pressure: 30"   Gusts: NA
Location:  52.65°N, 1.67°W
Report Text: EGBB 230320Z 30005KT 9999 -RA FEW036 BKN043 09/08 Q1016 RERA
Loading
Personal Weather Stations






























Interactive Weather Map New forecast layout! Learn more

10-Day Weather Forecast

Advertisements
Track Severe Weather on mobile